sensor_id;sensor_type;location;lat;lon;timestamp;temperature;humidity
22006;DHT22;11167;46.988;15.470;2023-07-20T00:00:32;24.30;78.80
22006;DHT22;11167;46.988;15.470;2023-07-20T00:02:33;24.30;78.80
22006;DHT22;11167;46.988;15.470;2023-07-20T00:04:34;24.20;78.70
22006;DHT22;11167;46.988;15.470;2023-07-20T00:06:35;24.20;78.70
22006;DHT22;11167;46.988;15.470;2023-07-20T00:08:36;24.20;78.70
22006;DHT22;11167;46.988;15.470;2023-07-20T00:10:37;24.20;78.90
22006;DHT22;11167;46.988;15.470;2023-07-20T00:12:39;24.20;78.80
22006;DHT22;11167;46.988;15.470;2023-07-20T00:14:41;24.20;78.80
22006;DHT22;11167;46.988;15.470;2023-07-20T00:16:52;24.20;78.90
22006;DHT22;11167;46.988;15.470;2023-07-20T00:19:04;24.20;78.80
22006;DHT22;11167;46.988;15.470;2023-07-20T00:21:07;24.10;78.80
22006;DHT22;11167;46.988;15.470;2023-07-20T00:23:08;24.10;78.80
22006;DHT22;11167;46.988;15.470;2023-07-20T00:25:09;24.10;78.90
22006;DHT22;11167;46.988;15.470;2023-07-20T00:27:12;24.10;78.80
22006;DHT22;11167;46.988;15.470;2023-07-20T00:29:14;24.10;78.80
22006;DHT22;11167;46.988;15.470;2023-07-20T00:31:15;24.10;78.80
22006;DHT22;11167;46.988;15.470;2023-07-20T00:33:17;24.00;78.80
22006;DHT22;11167;46.988;15.470;2023-07-20T00:35:18;24.00;78.80
22006;DHT22;11167;46.988;15.470;2023-07-20T00:37:19;24.00;78.80
22006;DHT22;11167;46.988;15.470;2023-07-20T00:39:22;24.00;79.20
22006;DHT22;11167;46.988;15.470;2023-07-20T00:41:24;24.00;78.80
22006;DHT22;11167;46.988;15.470;2023-07-20T00:43:28;24.00;78.80
22006;DHT22;11167;46.988;15.470;2023-07-20T00:45:34;24.00;78.80
22006;DHT22;11167;46.988;15.470;2023-07-20T00:47:50;24.00;78.80
22006;DHT22;11167;46.988;15.470;2023-07-20T00:49:52;23.90;78.90
22006;DHT22;11167;46.988;15.470;2023-07-20T00:51:53;23.90;79.00
22006;DHT22;11167;46.988;15.470;2023-07-20T00:53:56;23.90;78.90
22006;DHT22;11167;46.988;15.470;2023-07-20T00:55:58;23.90;78.90
22006;DHT22;11167;46.988;15.470;2023-07-20T00:58:00;23.80;78.80
22006;DHT22;11167;46.988;15.470;2023-07-20T01:00:04;23.90;79.70
22006;DHT22;11167;46.988;15.470;2023-07-20T01:02:05;23.80;78.80
22006;DHT22;11167;46.988;15.470;2023-07-20T01:04:08;23.80;79.00
22006;DHT22;11167;46.988;15.470;2023-07-20T01:08:43;23.80;78.90
22006;DHT22;11167;46.988;15.470;2023-07-20T01:10:46;23.70;78.80
22006;DHT22;11167;46.988;15.470;2023-07-20T01:12:47;23.80;79.00
22006;DHT22;11167;46.988;15.470;2023-07-20T01:14:51;23.80;78.90
22006;DHT22;11167;46.988;15.470;2023-07-20T01:16:53;23.70;78.80
22006;DHT22;11167;46.988;15.470;2023-07-20T01:18:54;23.70;78.90
22006;DHT22;11167;46.988;15.470;2023-07-20T01:21:02;23.70;78.90
22006;DHT22;11167;46.988;15.470;2023-07-20T01:28:15;23.70;78.80
22006;DHT22;11167;46.988;15.470;2023-07-20T01:32:33;23.60;79.00
22006;DHT22;11167;46.988;15.470;2023-07-20T01:34:36;23.60;78.80
22006;DHT22;11167;46.988;15.470;2023-07-20T01:36:38;23.60;78.90
22006;DHT22;11167;46.988;15.470;2023-07-20T01:38:40;23.50;78.80
22006;DHT22;11167;46.988;15.470;2023-07-20T01:40:43;23.50;78.80
22006;DHT22;11167;46.988;15.470;2023-07-20T01:42:47;23.50;79.00
22006;DHT22;11167;46.988;15.470;2023-07-20T01:44:51;23.50;78.80
22006;DHT22;11167;46.988;15.470;2023-07-20T01:47:13;23.50;78.80
22006;DHT22;11167;46.988;15.470;2023-07-20T01:49:14;23.50;79.70
22006;DHT22;11167;46.988;15.470;2023-07-20T01:51:16;23.50;78.90
22006;DHT22;11167;46.988;15.470;2023-07-20T01:53:20;23.50;78.90
22006;DHT22;11167;46.988;15.470;2023-07-20T01:55:21;23.50;78.90
22006;DHT22;11167;46.988;15.470;2023-07-20T01:57:22;23.50;78.90
22006;DHT22;11167;46.988;15.470;2023-07-20T01:59:23;23.50;79.00
22006;DHT22;11167;46.988;15.470;2023-07-20T02:01:24;23.50;79.00
22006;DHT22;11167;46.988;15.470;2023-07-20T02:03:25;23.40;78.90
22006;DHT22;11167;46.988;15.470;2023-07-20T02:05:27;23.40;78.90
22006;DHT22;11167;46.988;15.470;2023-07-20T02:07:28;23.40;78.90
22006;DHT22;11167;46.988;15.470;2023-07-20T02:09:29;23.40;78.90
22006;DHT22;11167;46.988;15.470;2023-07-20T02:11:31;23.40;78.90
22006;DHT22;11167;46.988;15.470;2023-07-20T02:13:33;23.40;78.90
22006;DHT22;11167;46.988;15.470;2023-07-20T02:15:34;23.40;78.90
22006;DHT22;11167;46.988;15.470;2023-07-20T02:17:36;23.40;79.00
22006;DHT22;11167;46.988;15.470;2023-07-20T02:19:38;23.40;79.00
22006;DHT22;11167;46.988;15.470;2023-07-20T02:21:39;23.40;79.00
22006;DHT22;11167;46.988;15.470;2023-07-20T02:23:40;23.30;78.90
22006;DHT22;11167;46.988;15.470;2023-07-20T02:25:41;23.30;78.90
22006;DHT22;11167;46.988;15.470;2023-07-20T02:27:42;23.30;79.00
22006;DHT22;11167;46.988;15.470;2023-07-20T02:29:43;23.30;79.00
22006;DHT22;11167;46.988;15.470;2023-07-20T02:31:44;23.30;78.90
22006;DHT22;11167;46.988;15.470;2023-07-20T02:33:46;23.30;79.00
22006;DHT22;11167;46.988;15.470;2023-07-20T02:35:47;23.30;79.00
22006;DHT22;11167;46.988;15.470;2023-07-20T02:37:48;23.20;79.10
22006;DHT22;11167;46.988;15.470;2023-07-20T02:39:50;23.20;79.00
22006;DHT22;11167;46.988;15.470;2023-07-20T02:41:51;23.20;79.00
22006;DHT22;11167;46.988;15.470;2023-07-20T02:43:52;23.20;79.10
22006;DHT22;11167;46.988;15.470;2023-07-20T02:45:54;23.20;79.00
22006;DHT22;11167;46.988;15.470;2023-07-20T02:47:55;23.20;79.10
22006;DHT22;11167;46.988;15.470;2023-07-20T02:49:56;23.20;79.00
22006;DHT22;11167;46.988;15.470;2023-07-20T02:51:58;23.20;79.10
22006;DHT22;11167;46.988;15.470;2023-07-20T02:53:59;23.20;79.10
22006;DHT22;11167;46.988;15.470;2023-07-20T02:56:01;23.10;79.00
22006;DHT22;11167;46.988;15.470;2023-07-20T02:58:02;23.10;79.00
22006;DHT22;11167;46.988;15.470;2023-07-20T03:00:14;23.10;79.00
22006;DHT22;11167;46.988;15.470;2023-07-20T03:02:17;23.20;79.10
22006;DHT22;11167;46.988;15.470;2023-07-20T03:04:18;23.10;79.10
22006;DHT22;11167;46.988;15.470;2023-07-20T03:06:19;23.10;80.00
22006;DHT22;11167;46.988;15.470;2023-07-20T03:08:20;23.10;79.10
22006;DHT22;11167;46.988;15.470;2023-07-20T03:10:21;23.10;79.10
22006;DHT22;11167;46.988;15.470;2023-07-20T03:12:22;23.10;79.10
22006;DHT22;11167;46.988;15.470;2023-07-20T03:14:25;23.10;79.10
22006;DHT22;11167;46.988;15.470;2023-07-20T03:16:26;23.00;79.10
22006;DHT22;11167;46.988;15.470;2023-07-20T03:18:27;23.00;79.10
22006;DHT22;11167;46.988;15.470;2023-07-20T03:20:29;23.10;79.10
22006;DHT22;11167;46.988;15.470;2023-07-20T03:22:30;23.00;79.10
22006;DHT22;11167;46.988;15.470;2023-07-20T03:24:31;23.00;79.10
22006;DHT22;11167;46.988;15.470;2023-07-20T03:26:32;23.00;79.30
22006;DHT22;11167;46.988;15.470;2023-07-20T03:28:34;23.00;79.10
22006;DHT22;11167;46.988;15.470;2023-07-20T03:30:35;23.00;79.20
22006;DHT22;11167;46.988;15.470;2023-07-20T03:32:36;23.00;79.20
22006;DHT22;11167;46.988;15.470;2023-07-20T03:34:37;22.90;79.20
22006;DHT22;11167;46.988;15.470;2023-07-20T03:36:38;23.00;79.30
22006;DHT22;11167;46.988;15.470;2023-07-20T03:38:39;23.00;79.20
22006;DHT22;11167;46.988;15.470;2023-07-20T03:41:00;22.90;79.20
22006;DHT22;11167;46.988;15.470;2023-07-20T03:42:48;22.90;79.10
22006;DHT22;11167;46.988;15.470;2023-07-20T03:44:49;22.90;79.20
22006;DHT22;11167;46.988;15.470;2023-07-20T03:46:51;22.90;79.20
22006;DHT22;11167;46.988;15.470;2023-07-20T03:48:52;22.90;79.20
22006;DHT22;11167;46.988;15.470;2023-07-20T03:50:54;22.90;79.30
22006;DHT22;11167;46.988;15.470;2023-07-20T03:55:19;22.80;79.20
22006;DHT22;11167;46.988;15.470;2023-07-20T03:57:21;22.80;79.30
22006;DHT22;11167;46.988;15.470;2023-07-20T03:59:22;22.80;79.30
22006;DHT22;11167;46.988;15.470;2023-07-20T04:01:23;22.80;79.30
22006;DHT22;11167;46.988;15.470;2023-07-20T04:03:24;22.80;79.40
22006;DHT22;11167;46.988;15.470;2023-07-20T04:05:27;22.80;79.30
22006;DHT22;11167;46.988;15.470;2023-07-20T04:07:28;22.80;79.30
22006;DHT22;11167;46.988;15.470;2023-07-20T04:09:31;22.80;79.30
22006;DHT22;11167;46.988;15.470;2023-07-20T04:11:32;22.80;79.40
22006;DHT22;11167;46.988;15.470;2023-07-20T04:13:33;22.80;79.40
22006;DHT22;11167;46.988;15.470;2023-07-20T04:15:35;22.80;79.50
22006;DHT22;11167;46.988;15.470;2023-07-20T04:17:36;22.70;79.30
22006;DHT22;11167;46.988;15.470;2023-07-20T04:19:37;22.70;79.30
22006;DHT22;11167;46.988;15.470;2023-07-20T04:21:41;22.70;79.40
22006;DHT22;11167;46.988;15.470;2023-07-20T04:23:42;22.70;79.40
22006;DHT22;11167;46.988;15.470;2023-07-20T04:25:44;22.70;79.40
22006;DHT22;11167;46.988;15.470;2023-07-20T04:27:45;22.70;79.40
22006;DHT22;11167;46.988;15.470;2023-07-20T04:29:46;22.70;79.50
22006;DHT22;11167;46.988;15.470;2023-07-20T04:31:47;22.70;79.50
22006;DHT22;11167;46.988;15.470;2023-07-20T04:33:49;22.70;79.50
22006;DHT22;11167;46.988;15.470;2023-07-20T04:35:54;22.60;79.40
22006;DHT22;11167;46.988;15.470;2023-07-20T04:37:55;22.70;79.50
22006;DHT22;11167;46.988;15.470;2023-07-20T04:39:56;22.60;79.40
22006;DHT22;11167;46.988;15.470;2023-07-20T04:41:57;22.60;79.50
22006;DHT22;11167;46.988;15.470;2023-07-20T04:43:59;22.60;79.50
22006;DHT22;11167;46.988;15.470;2023-07-20T04:46:00;22.60;79.50
22006;DHT22;11167;46.988;15.470;2023-07-20T04:48:02;22.60;79.50
22006;DHT22;11167;46.988;15.470;2023-07-20T04:50:03;22.60;79.50
22006;DHT22;11167;46.988;15.470;2023-07-20T04:52:04;22.60;79.50
22006;DHT22;11167;46.988;15.470;2023-07-20T04:54:05;22.60;80.30
22006;DHT22;11167;46.988;15.470;2023-07-20T04:56:08;22.60;79.60
22006;DHT22;11167;46.988;15.470;2023-07-20T04:58:09;22.60;79.50
22006;DHT22;11167;46.988;15.470;2023-07-20T05:00:12;22.60;79.50
22006;DHT22;11167;46.988;15.470;2023-07-20T05:02:13;22.60;79.70
22006;DHT22;11167;46.988;15.470;2023-07-20T05:04:14;22.60;80.30
22006;DHT22;11167;46.988;15.470;2023-07-20T05:06:15;22.50;79.70
22006;DHT22;11167;46.988;15.470;2023-07-20T05:08:16;22.50;79.70
22006;DHT22;11167;46.988;15.470;2023-07-20T05:10:18;22.50;79.70
22006;DHT22;11167;46.988;15.470;2023-07-20T05:12:19;22.50;79.70
22006;DHT22;11167;46.988;15.470;2023-07-20T05:14:20;22.50;79.70
22006;DHT22;11167;46.988;15.470;2023-07-20T05:16:21;22.50;79.70
22006;DHT22;11167;46.988;15.470;2023-07-20T05:18:23;22.50;79.70
22006;DHT22;11167;46.988;15.470;2023-07-20T05:20:24;22.50;79.00
22006;DHT22;11167;46.988;15.470;2023-07-20T05:22:25;22.50;79.70
22006;DHT22;11167;46.988;15.470;2023-07-20T05:24:26;22.50;79.20
22006;DHT22;11167;46.988;15.470;2023-07-20T05:26:28;22.50;79.70
22006;DHT22;11167;46.988;15.470;2023-07-20T05:28:29;22.50;79.70
22006;DHT22;11167;46.988;15.470;2023-07-20T05:30:30;22.50;79.70
22006;DHT22;11167;46.988;15.470;2023-07-20T05:32:31;22.50;79.70
22006;DHT22;11167;46.988;15.470;2023-07-20T05:34:32;22.40;79.70
22006;DHT22;11167;46.988;15.470;2023-07-20T05:36:33;22.50;79.70
22006;DHT22;11167;46.988;15.470;2023-07-20T05:38:35;22.50;79.80
22006;DHT22;11167;46.988;15.470;2023-07-20T05:40:44;22.40;80.00
22006;DHT22;11167;46.988;15.470;2023-07-20T05:42:46;22.40;79.80
22006;DHT22;11167;46.988;15.470;2023-07-20T05:44:48;22.40;79.80
22006;DHT22;11167;46.988;15.470;2023-07-20T05:46:50;22.40;79.80
22006;DHT22;11167;46.988;15.470;2023-07-20T05:48:51;22.40;79.80
22006;DHT22;11167;46.988;15.470;2023-07-20T05:50:52;22.40;79.80
22006;DHT22;11167;46.988;15.470;2023-07-20T05:52:54;22.40;79.80
22006;DHT22;11167;46.988;15.470;2023-07-20T05:54:56;22.40;79.80
22006;DHT22;11167;46.988;15.470;2023-07-20T05:56:58;22.40;79.90
22006;DHT22;11167;46.988;15.470;2023-07-20T05:58:59;22.40;79.80
22006;DHT22;11167;46.988;15.470;2023-07-20T06:01:01;22.40;79.80
22006;DHT22;11167;46.988;15.470;2023-07-20T06:03:03;22.40;79.80
22006;DHT22;11167;46.988;15.470;2023-07-20T06:05:07;22.40;79.90
22006;DHT22;11167;46.988;15.470;2023-07-20T06:07:11;22.40;79.90
22006;DHT22;11167;46.988;15.470;2023-07-20T06:09:12;22.40;79.80
22006;DHT22;11167;46.988;15.470;2023-07-20T06:11:14;22.40;79.80
22006;DHT22;11167;46.988;15.470;2023-07-20T06:13:15;22.40;79.90
22006;DHT22;11167;46.988;15.470;2023-07-20T06:15:26;22.40;79.90
22006;DHT22;11167;46.988;15.470;2023-07-20T06:17:27;22.40;80.00
22006;DHT22;11167;46.988;15.470;2023-07-20T06:19:28;22.40;79.90
22006;DHT22;11167;46.988;15.470;2023-07-20T06:21:29;22.40;79.90
22006;DHT22;11167;46.988;15.470;2023-07-20T06:23:30;22.30;79.80
22006;DHT22;11167;46.988;15.470;2023-07-20T06:25:32;22.30;79.80
22006;DHT22;11167;46.988;15.470;2023-07-20T06:27:33;22.40;79.90
22006;DHT22;11167;46.988;15.470;2023-07-20T06:29:34;22.30;79.80
22006;DHT22;11167;46.988;15.470;2023-07-20T06:31:35;22.30;79.80
22006;DHT22;11167;46.988;15.470;2023-07-20T06:33:36;22.30;79.80
22006;DHT22;11167;46.988;15.470;2023-07-20T06:35:37;22.30;79.80
22006;DHT22;11167;46.988;15.470;2023-07-20T06:37:40;22.30;79.80
22006;DHT22;11167;46.988;15.470;2023-07-20T06:39:41;22.30;79.80
22006;DHT22;11167;46.988;15.470;2023-07-20T06:41:42;22.30;79.80
22006;DHT22;11167;46.988;15.470;2023-07-20T06:43:43;22.30;79.80
22006;DHT22;11167;46.988;15.470;2023-07-20T06:45:44;22.30;79.80
22006;DHT22;11167;46.988;15.470;2023-07-20T06:47:45;22.30;79.80
22006;DHT22;11167;46.988;15.470;2023-07-20T06:49:46;22.30;79.80
22006;DHT22;11167;46.988;15.470;2023-07-20T06:51:47;22.30;79.80
22006;DHT22;11167;46.988;15.470;2023-07-20T06:53:48;22.30;79.80
22006;DHT22;11167;46.988;15.470;2023-07-20T06:55:49;22.30;79.60
22006;DHT22;11167;46.988;15.470;2023-07-20T06:57:50;22.30;79.80
22006;DHT22;11167;46.988;15.470;2023-07-20T06:59:52;22.30;79.80
22006;DHT22;11167;46.988;15.470;2023-07-20T07:01:54;22.30;79.80
22006;DHT22;11167;46.988;15.470;2023-07-20T07:03:55;22.30;79.80
22006;DHT22;11167;46.988;15.470;2023-07-20T07:05:56;22.30;79.80
22006;DHT22;11167;46.988;15.470;2023-07-20T07:07:57;22.30;79.80
22006;DHT22;11167;46.988;15.470;2023-07-20T07:09:59;22.30;80.70
22006;DHT22;11167;46.988;15.470;2023-07-20T07:12:01;22.30;79.80
22006;DHT22;11167;46.988;15.470;2023-07-20T07:14:02;22.30;79.80
22006;DHT22;11167;46.988;15.470;2023-07-20T07:16:03;22.30;79.80
22006;DHT22;11167;46.988;15.470;2023-07-20T07:18:04;22.30;79.80
22006;DHT22;11167;46.988;15.470;2023-07-20T07:20:06;22.30;79.80
22006;DHT22;11167;46.988;15.470;2023-07-20T07:22:08;22.30;79.90
22006;DHT22;11167;46.988;15.470;2023-07-20T07:24:09;22.30;79.80
22006;DHT22;11167;46.988;15.470;2023-07-20T07:26:11;22.30;79.80
22006;DHT22;11167;46.988;15.470;2023-07-20T07:28:12;22.30;79.80
22006;DHT22;11167;46.988;15.470;2023-07-20T07:30:14;22.40;79.90
22006;DHT22;11167;46.988;15.470;2023-07-20T07:32:15;22.30;79.90
22006;DHT22;11167;46.988;15.470;2023-07-20T07:34:17;22.30;79.80
22006;DHT22;11167;46.988;15.470;2023-07-20T07:36:19;22.40;79.80
22006;DHT22;11167;46.988;15.470;2023-07-20T07:38:20;22.40;79.90
22006;DHT22;11167;46.988;15.470;2023-07-20T07:40:21;22.40;79.40
22006;DHT22;11167;46.988;15.470;2023-07-20T07:42:22;22.40;79.90
22006;DHT22;11167;46.988;15.470;2023-07-20T07:44:23;22.40;79.90
22006;DHT22;11167;46.988;15.470;2023-07-20T07:46:24;22.40;79.90
22006;DHT22;11167;46.988;15.470;2023-07-20T07:48:26;22.40;80.00
22006;DHT22;11167;46.988;15.470;2023-07-20T07:50:27;22.40;80.00
22006;DHT22;11167;46.988;15.470;2023-07-20T07:52:29;22.40;80.00
22006;DHT22;11167;46.988;15.470;2023-07-20T07:54:30;22.40;80.00
22006;DHT22;11167;46.988;15.470;2023-07-20T07:56:31;22.40;80.00
22006;DHT22;11167;46.988;15.470;2023-07-20T07:58:32;22.40;80.00
22006;DHT22;11167;46.988;15.470;2023-07-20T08:00:34;22.40;80.00
22006;DHT22;11167;46.988;15.470;2023-07-20T08:02:35;22.40;80.00
22006;DHT22;11167;46.988;15.470;2023-07-20T08:04:36;22.40;80.10
22006;DHT22;11167;46.988;15.470;2023-07-20T08:06:37;22.50;80.00
22006;DHT22;11167;46.988;15.470;2023-07-20T08:08:38;22.50;80.00
22006;DHT22;11167;46.988;15.470;2023-07-20T08:10:39;22.50;80.00
22006;DHT22;11167;46.988;15.470;2023-07-20T08:12:40;22.50;80.00
22006;DHT22;11167;46.988;15.470;2023-07-20T08:14:41;22.50;80.00
22006;DHT22;11167;46.988;15.470;2023-07-20T08:16:42;22.50;80.00
22006;DHT22;11167;46.988;15.470;2023-07-20T08:18:44;22.50;80.00
22006;DHT22;11167;46.988;15.470;2023-07-20T08:20:46;22.50;80.00
22006;DHT22;11167;46.988;15.470;2023-07-20T08:22:47;22.50;80.00
22006;DHT22;11167;46.988;15.470;2023-07-20T08:24:48;22.50;80.00
22006;DHT22;11167;46.988;15.470;2023-07-20T08:26:49;22.50;80.00
22006;DHT22;11167;46.988;15.470;2023-07-20T08:28:50;22.50;80.20
22006;DHT22;11167;46.988;15.470;2023-07-20T08:30:53;22.60;80.00
22006;DHT22;11167;46.988;15.470;2023-07-20T08:32:54;22.60;80.00
22006;DHT22;11167;46.988;15.470;2023-07-20T08:34:55;22.50;80.00
22006;DHT22;11167;46.988;15.470;2023-07-20T08:36:57;22.60;80.00
22006;DHT22;11167;46.988;15.470;2023-07-20T08:38:58;22.60;80.00
22006;DHT22;11167;46.988;15.470;2023-07-20T08:40:59;22.60;80.00
22006;DHT22;11167;46.988;15.470;2023-07-20T08:43:02;22.60;80.10
22006;DHT22;11167;46.988;15.470;2023-07-20T08:45:06;22.60;80.00
22006;DHT22;11167;46.988;15.470;2023-07-20T08:47:08;22.60;80.10
22006;DHT22;11167;46.988;15.470;2023-07-20T08:49:11;22.60;80.00
22006;DHT22;11167;46.988;15.470;2023-07-20T08:51:13;22.60;80.00
22006;DHT22;11167;46.988;15.470;2023-07-20T08:53:16;22.70;80.10
22006;DHT22;11167;46.988;15.470;2023-07-20T08:55:23;22.60;80.00
22006;DHT22;11167;46.988;15.470;2023-07-20T08:57:23;22.70;80.10
22006;DHT22;11167;46.988;15.470;2023-07-20T08:59:24;22.70;80.20
22006;DHT22;11167;46.988;15.470;2023-07-20T09:01:28;22.70;80.10
22006;DHT22;11167;46.988;15.470;2023-07-20T09:03:30;22.70;80.10
22006;DHT22;11167;46.988;15.470;2023-07-20T09:05:33;22.70;80.10
22006;DHT22;11167;46.988;15.470;2023-07-20T09:07:36;22.70;80.10
22006;DHT22;11167;46.988;15.470;2023-07-20T09:09:40;22.80;80.20
22006;DHT22;11167;46.988;15.470;2023-07-20T09:11:49;22.70;80.10
22006;DHT22;11167;46.988;15.470;2023-07-20T09:13:48;22.80;80.20
22006;DHT22;11167;46.988;15.470;2023-07-20T09:15:53;22.80;80.20
22006;DHT22;11167;46.988;15.470;2023-07-20T09:17:55;22.80;80.20
22006;DHT22;11167;46.988;15.470;2023-07-20T09:19:56;22.80;80.20
22006;DHT22;11167;46.988;15.470;2023-07-20T09:21:57;22.80;80.20
22006;DHT22;11167;46.988;15.470;2023-07-20T09:23:58;22.80;80.20
22006;DHT22;11167;46.988;15.470;2023-07-20T09:26:00;22.80;80.20
22006;DHT22;11167;46.988;15.470;2023-07-20T09:28:02;22.90;81.10
22006;DHT22;11167;46.988;15.470;2023-07-20T09:30:05;22.90;80.20
22006;DHT22;11167;46.988;15.470;2023-07-20T09:32:09;22.90;80.20
22006;DHT22;11167;46.988;15.470;2023-07-20T09:34:10;22.90;80.20
22006;DHT22;11167;46.988;15.470;2023-07-20T09:36:11;23.00;80.30
22006;DHT22;11167;46.988;15.470;2023-07-20T09:38:14;23.00;80.40
22006;DHT22;11167;46.988;15.470;2023-07-20T09:40:17;23.00;80.40
22006;DHT22;11167;46.988;15.470;2023-07-20T09:42:20;23.00;80.40
22006;DHT22;11167;46.988;15.470;2023-07-20T09:44:22;23.00;80.40
22006;DHT22;11167;46.988;15.470;2023-07-20T09:46:24;23.00;80.40
22006;DHT22;11167;46.988;15.470;2023-07-20T09:48:25;23.10;80.40
22006;DHT22;11167;46.988;15.470;2023-07-20T09:50:27;23.10;80.40
22006;DHT22;11167;46.988;15.470;2023-07-20T09:52:29;23.10;80.50
22006;DHT22;11167;46.988;15.470;2023-07-20T09:54:31;23.10;80.50
22006;DHT22;11167;46.988;15.470;2023-07-20T09:56:33;23.10;80.40
22006;DHT22;11167;46.988;15.470;2023-07-20T09:58:35;23.20;80.60
22006;DHT22;11167;46.988;15.470;2023-07-20T10:00:37;23.20;80.60
22006;DHT22;11167;46.988;15.470;2023-07-20T10:02:45;23.20;80.60
22006;DHT22;11167;46.988;15.470;2023-07-20T10:04:49;23.20;80.60
22006;DHT22;11167;46.988;15.470;2023-07-20T10:06:52;23.20;80.60
22006;DHT22;11167;46.988;15.470;2023-07-20T10:08:59;23.30;80.70
22006;DHT22;11167;46.988;15.470;2023-07-20T10:11:00;23.30;80.70
22006;DHT22;11167;46.988;15.470;2023-07-20T10:13:03;23.30;80.60
22006;DHT22;11167;46.988;15.470;2023-07-20T10:15:13;23.30;80.60
22006;DHT22;11167;46.988;15.470;2023-07-20T10:17:14;23.40;80.60
22006;DHT22;11167;46.988;15.470;2023-07-20T10:19:23;23.40;80.70
22006;DHT22;11167;46.988;15.470;2023-07-20T10:21:26;23.40;80.70
22006;DHT22;11167;46.988;15.470;2023-07-20T10:23:31;23.40;80.60
22006;DHT22;11167;46.988;15.470;2023-07-20T10:25:33;23.40;80.60
22006;DHT22;11167;46.988;15.470;2023-07-20T10:27:36;23.50;80.60
22006;DHT22;11167;46.988;15.470;2023-07-20T10:29:37;23.50;80.60
22006;DHT22;11167;46.988;15.470;2023-07-20T10:31:40;23.50;80.60
22006;DHT22;11167;46.988;15.470;2023-07-20T10:33:41;23.50;80.60
22006;DHT22;11167;46.988;15.470;2023-07-20T10:35:54;23.50;80.60
22006;DHT22;11167;46.988;15.470;2023-07-20T10:38:00;23.50;80.60
22006;DHT22;11167;46.988;15.470;2023-07-20T10:42:23;23.60;81.50
22006;DHT22;11167;46.988;15.470;2023-07-20T10:44:24;23.60;80.70
22006;DHT22;11167;46.988;15.470;2023-07-20T10:46:45;23.60;80.70
22006;DHT22;11167;46.988;15.470;2023-07-20T10:49:04;23.70;80.70
22006;DHT22;11167;46.988;15.470;2023-07-20T10:51:20;23.70;80.70
22006;DHT22;11167;46.988;15.470;2023-07-20T10:53:21;23.70;80.70
22006;DHT22;11167;46.988;15.470;2023-07-20T10:55:22;23.70;80.70
22006;DHT22;11167;46.988;15.470;2023-07-20T10:57:29;23.70;80.70
22006;DHT22;11167;46.988;15.470;2023-07-20T11:01:36;23.80;80.70
22006;DHT22;11167;46.988;15.470;2023-07-20T11:03:38;23.80;80.60
22006;DHT22;11167;46.988;15.470;2023-07-20T11:05:41;23.80;80.60
22006;DHT22;11167;46.988;15.470;2023-07-20T11:07:43;23.80;80.50
22006;DHT22;11167;46.988;15.470;2023-07-20T11:09:44;23.90;80.70
22006;DHT22;11167;46.988;15.470;2023-07-20T11:11:48;23.90;80.50
22006;DHT22;11167;46.988;15.470;2023-07-20T11:14:03;23.90;80.50
22006;DHT22;11167;46.988;15.470;2023-07-20T11:16:04;23.90;80.50
22006;DHT22;11167;46.988;15.470;2023-07-20T11:18:12;24.00;80.60
22006;DHT22;11167;46.988;15.470;2023-07-20T11:20:14;24.00;80.70
22006;DHT22;11167;46.988;15.470;2023-07-20T11:22:17;24.00;80.50
22006;DHT22;11167;46.988;15.470;2023-07-20T11:24:20;24.00;80.60
22006;DHT22;11167;46.988;15.470;2023-07-20T11:26:21;24.00;80.50
22006;DHT22;11167;46.988;15.470;2023-07-20T11:28:22;24.10;80.60
22006;DHT22;11167;46.988;15.470;2023-07-20T11:30:23;24.10;80.60
22006;DHT22;11167;46.988;15.470;2023-07-20T11:32:24;24.10;80.70
22006;DHT22;11167;46.988;15.470;2023-07-20T11:34:29;24.20;80.60
22006;DHT22;11167;46.988;15.470;2023-07-20T11:36:29;24.20;80.60
22006;DHT22;11167;46.988;15.470;2023-07-20T11:38:31;24.20;80.60
22006;DHT22;11167;46.988;15.470;2023-07-20T11:40:32;24.20;80.60
22006;DHT22;11167;46.988;15.470;2023-07-20T11:42:34;24.20;80.60
22006;DHT22;11167;46.988;15.470;2023-07-20T11:44:35;24.30;80.60
22006;DHT22;11167;46.988;15.470;2023-07-20T11:46:36;24.30;80.60
22006;DHT22;11167;46.988;15.470;2023-07-20T11:48:37;24.30;80.60
22006;DHT22;11167;46.988;15.470;2023-07-20T11:50:41;24.40;80.70
22006;DHT22;11167;46.988;15.470;2023-07-20T11:52:43;24.40;80.70
22006;DHT22;11167;46.988;15.470;2023-07-20T11:54:45;24.40;80.80
22006;DHT22;11167;46.988;15.470;2023-07-20T11:56:46;24.40;80.80
22006;DHT22;11167;46.988;15.470;2023-07-20T11:58:47;24.40;80.80
22006;DHT22;11167;46.988;15.470;2023-07-20T12:00:48;24.50;80.90
22006;DHT22;11167;46.988;15.470;2023-07-20T12:02:50;24.50;80.90
22006;DHT22;11167;46.988;15.470;2023-07-20T12:04:51;24.50;81.00
22006;DHT22;11167;46.988;15.470;2023-07-20T12:06:54;24.50;81.00
22006;DHT22;11167;46.988;15.470;2023-07-20T12:08:57;24.60;81.00
22006;DHT22;11167;46.988;15.470;2023-07-20T12:10:58;24.60;81.00
22006;DHT22;11167;46.988;15.470;2023-07-20T12:13:03;24.60;81.00
22006;DHT22;11167;46.988;15.470;2023-07-20T12:15:23;24.60;81.00
22006;DHT22;11167;46.988;15.470;2023-07-20T12:17:24;24.70;81.00
22006;DHT22;11167;46.988;15.470;2023-07-20T12:19:25;24.70;81.00
22006;DHT22;11167;46.988;15.470;2023-07-20T12:21:26;24.70;81.00
22006;DHT22;11167;46.988;15.470;2023-07-20T12:23:39;24.70;81.00
22006;DHT22;11167;46.988;15.470;2023-07-20T12:25:42;24.70;81.00
22006;DHT22;11167;46.988;15.470;2023-07-20T12:27:44;24.80;81.00
22006;DHT22;11167;46.988;15.470;2023-07-20T12:29:45;24.70;81.00
22006;DHT22;11167;46.988;15.470;2023-07-20T12:31:46;24.80;81.00
22006;DHT22;11167;46.988;15.470;2023-07-20T12:33:47;24.80;81.00
22006;DHT22;11167;46.988;15.470;2023-07-20T12:35:52;24.80;81.10
22006;DHT22;11167;46.988;15.470;2023-07-20T12:37:55;24.90;81.10
22006;DHT22;11167;46.988;15.470;2023-07-20T12:39:56;24.90;81.10
22006;DHT22;11167;46.988;15.470;2023-07-20T12:41:57;24.90;81.10
22006;DHT22;11167;46.988;15.470;2023-07-20T12:43:58;24.90;81.10
22006;DHT22;11167;46.988;15.470;2023-07-20T12:46:00;25.00;81.10
22006;DHT22;11167;46.988;15.470;2023-07-20T12:48:02;25.00;81.10
22006;DHT22;11167;46.988;15.470;2023-07-20T12:50:04;25.00;81.10
22006;DHT22;11167;46.988;15.470;2023-07-20T12:52:07;25.00;81.10
22006;DHT22;11167;46.988;15.470;2023-07-20T12:54:09;25.00;81.10
22006;DHT22;11167;46.988;15.470;2023-07-20T12:56:10;25.10;81.10